createdAt,value
2022-09-12T00:00:17.434Z,13.00
2022-09-12T00:01:22.418Z,12.90
2022-09-12T00:02:28.090Z,12.90
2022-09-12T00:03:30.544Z,12.80
2022-09-12T00:04:33.907Z,12.90
2022-09-12T00:05:41.563Z,12.80
2022-09-12T00:06:45.308Z,12.80
2022-09-12T00:07:48.545Z,16.60
2022-09-12T00:08:56.495Z,12.90
2022-09-12T00:09:58.852Z,12.80
2022-09-12T00:11:06.379Z,12.80
2022-09-12T00:12:10.079Z,12.90
2022-09-12T00:13:12.467Z,12.90
2022-09-12T00:14:18.629Z,12.80
2022-09-12T00:15:21.157Z,12.80
2022-09-12T00:16:27.886Z,12.70
2022-09-12T00:17:35.725Z,12.70
2022-09-12T00:18:39.254Z,12.70
2022-09-12T00:19:41.703Z,12.70
2022-09-12T00:20:45.314Z,12.70
2022-09-12T00:21:47.589Z,13.30
2022-09-12T00:22:51.192Z,12.50
2022-09-12T00:23:55.777Z,12.00
2022-09-12T00:24:59.217Z,9.60
2022-09-12T00:26:05.999Z,12.60
2022-09-12T00:27:09.480Z,12.70
2022-09-12T00:28:13.620Z,12.60
2022-09-12T00:29:18.396Z,12.60
2022-09-12T00:30:20.824Z,12.70
2022-09-12T00:31:26.682Z,12.60
2022-09-12T00:32:29.165Z,11.10
2022-09-12T00:33:33.022Z,12.90
2022-09-12T00:34:37.179Z,12.60
2022-09-12T00:35:44.616Z,12.70
2022-09-12T00:37:50.941Z,12.60
2022-09-12T00:38:55.647Z,12.60
2022-09-12T00:39:59.424Z,12.60
2022-09-12T00:41:02.128Z,12.60
2022-09-12T00:42:06.013Z,13.40
2022-09-12T00:43:13.943Z,12.70
2022-09-12T00:44:52.617Z,12.60
2022-09-12T00:45:55.867Z,12.70
2022-09-12T00:47:05.747Z,12.70
2022-09-12T00:48:22.744Z,12.70
2022-09-12T00:49:33.708Z,12.60
2022-09-12T00:50:37.241Z,12.60
2022-09-12T00:51:44.214Z,12.60
2022-09-12T00:52:53.026Z,12.60
2022-09-12T00:54:00.051Z,12.60
2022-09-12T00:55:09.603Z,10.70
2022-09-12T00:56:17.762Z,12.60
2022-09-12T00:57:24.852Z,12.60
2022-09-12T00:58:35.611Z,12.60
2022-09-12T00:59:46.219Z,12.50
2022-09-12T01:00:49.996Z,16.30
2022-09-12T01:01:53.596Z,12.60
2022-09-12T01:03:01.903Z,12.60
2022-09-12T01:04:04.833Z,12.60
2022-09-12T01:05:09.445Z,12.60
2022-09-12T01:06:18.506Z,12.60
2022-09-12T01:07:24.140Z,12.70
2022-09-12T01:08:28.725Z,12.60
2022-09-12T01:09:33.972Z,12.60
2022-09-12T01:10:39.384Z,12.60
2022-09-12T01:11:47.127Z,14.00
2022-09-12T01:12:51.023Z,12.50
2022-09-12T01:13:54.252Z,12.60
2022-09-12T01:14:56.699Z,12.50
2022-09-12T01:16:00.066Z,12.60
2022-09-12T01:17:02.493Z,12.50
2022-09-12T01:18:17.319Z,12.50
2022-09-12T01:19:57.902Z,12.60
2022-09-12T01:21:20.104Z,12.60
2022-09-12T01:22:49.152Z,12.60
2022-09-12T01:24:29.819Z,12.60
2022-09-12T01:25:52.858Z,12.60
2022-09-12T01:27:17.869Z,12.60
2022-09-12T01:28:42.391Z,12.60
2022-09-12T01:30:18.400Z,12.60
2022-09-12T01:31:28.536Z,12.60
2022-09-12T01:32:47.521Z,12.60
2022-09-12T01:34:15.361Z,12.60
2022-09-12T01:35:25.796Z,12.60
2022-09-12T01:36:46.301Z,12.60
2022-09-12T01:38:02.339Z,12.90
2022-09-12T01:39:10.234Z,12.60
2022-09-12T01:40:22.515Z,12.50
2022-09-12T01:41:33.807Z,12.50
2022-09-12T01:42:47.286Z,12.50
2022-09-12T01:44:02.004Z,12.50
2022-09-12T01:45:12.655Z,12.50
2022-09-12T01:46:21.571Z,12.50
2022-09-12T01:47:31.580Z,12.50
2022-09-12T01:48:41.954Z,12.50
2022-09-12T01:49:57.297Z,12.50
2022-09-12T01:51:11.601Z,12.60
2022-09-12T01:52:20.393Z,12.50
2022-09-12T01:53:29.701Z,12.50
2022-09-12T01:54:41.220Z,12.50
2022-09-12T01:55:55.360Z,12.60
2022-09-12T01:57:04.351Z,12.50
2022-09-12T01:58:13.872Z,12.50
2022-09-12T01:59:23.191Z,12.50
2022-09-12T02:00:27.269Z,12.50
2022-09-12T02:01:34.437Z,12.50
2022-09-12T02:02:43.493Z,12.50
2022-09-12T02:03:51.850Z,12.50
2022-09-12T02:05:03.813Z,12.50
2022-09-12T02:06:13.513Z,12.50
2022-09-12T02:07:25.009Z,12.60
2022-09-12T02:08:33.490Z,12.50
2022-09-12T02:09:42.705Z,12.60
2022-09-12T02:10:51.267Z,12.50
2022-09-12T02:12:01.587Z,12.50
2022-09-12T02:13:12.219Z,12.50
2022-09-12T02:14:20.865Z,12.50
2022-09-12T02:15:32.892Z,12.50
2022-09-12T02:16:46.477Z,12.50
2022-09-12T02:17:56.285Z,12.50
2022-09-12T02:19:09.157Z,12.40
2022-09-12T02:20:31.310Z,12.50
2022-09-12T02:21:50.573Z,12.50
2022-09-12T02:22:57.668Z,12.50
2022-09-12T02:24:06.737Z,12.50
2022-09-12T02:25:14.688Z,12.40
2022-09-12T02:26:25.081Z,12.40
2022-09-12T02:27:38.026Z,12.50
2022-09-12T02:28:44.799Z,12.50
2022-09-12T02:29:48.335Z,12.50
2022-09-12T02:33:31.685Z,12.50
2022-09-12T02:34:49.808Z,12.60
2022-09-12T02:35:58.866Z,12.50
2022-09-12T02:37:15.679Z,12.60
2022-09-12T02:38:30.697Z,12.50
2022-09-12T02:39:35.366Z,12.60
2022-09-12T02:40:38.971Z,12.50
2022-09-12T02:41:43.417Z,12.50
2022-09-12T02:42:46.409Z,12.60
2022-09-12T02:43:55.202Z,12.50
2022-09-12T02:44:58.339Z,12.50
2022-09-12T02:46:02.785Z,12.50
2022-09-12T02:47:11.315Z,12.50
2022-09-12T02:48:21.548Z,12.60
2022-09-12T02:49:27.240Z,12.60
2022-09-12T02:50:34.979Z,12.60
2022-09-12T02:51:38.566Z,12.60
2022-09-12T02:52:44.293Z,12.60
2022-09-12T02:53:47.355Z,12.60
2022-09-12T02:54:53.953Z,12.60
2022-09-12T02:55:57.807Z,12.50
2022-09-12T02:57:02.258Z,12.50
2022-09-12T02:58:10.811Z,12.50
2022-09-12T02:59:21.250Z,12.50
2022-09-12T03:00:26.609Z,12.40
2022-09-12T03:02:08.473Z,12.40
2022-09-12T03:03:36.360Z,12.30
2022-09-12T03:05:10.063Z,12.30
2022-09-12T03:06:24.018Z,12.30
2022-09-12T03:07:42.991Z,12.30
2022-09-12T03:09:03.558Z,12.30
2022-09-12T03:10:18.359Z,12.20
2022-09-12T03:11:46.631Z,12.20
2022-09-12T03:13:03.705Z,12.20
2022-09-12T03:14:21.583Z,12.20
2022-09-12T03:15:39.321Z,12.20
2022-09-12T03:16:53.710Z,13.00
2022-09-12T03:18:07.995Z,12.10
2022-09-12T03:19:20.282Z,12.20
2022-09-12T03:20:40.928Z,12.20
2022-09-12T03:21:58.848Z,12.20
2022-09-12T03:23:10.933Z,12.20
2022-09-12T03:24:20.821Z,12.20
2022-09-12T03:25:32.520Z,12.20
2022-09-12T03:26:43.291Z,12.10
2022-09-12T03:27:56.321Z,12.20
2022-09-12T03:29:04.288Z,12.20
2022-09-12T03:30:12.543Z,12.10
2022-09-12T03:31:17.665Z,12.20
2022-09-12T03:32:21.723Z,12.20
2022-09-12T03:33:27.583Z,12.20
2022-09-12T03:34:33.455Z,12.20
2022-09-12T03:35:39.406Z,12.20
2022-09-12T03:36:44.343Z,12.20
2022-09-12T03:37:48.517Z,12.20
2022-09-12T03:38:52.998Z,12.20
2022-09-12T03:39:56.311Z,12.20
2022-09-12T03:41:02.058Z,12.20
2022-09-12T03:42:05.321Z,12.20
2022-09-12T03:43:11.086Z,12.20
2022-09-12T03:44:14.025Z,12.20
2022-09-12T03:45:18.380Z,12.20
2022-09-12T03:47:30.477Z,12.10
2022-09-12T03:48:33.607Z,12.00
2022-09-12T03:49:37.453Z,12.10
2022-09-12T03:50:41.980Z,12.00
2022-09-12T03:51:46.138Z,11.90
2022-09-12T03:52:49.410Z,12.10
2022-09-12T03:53:53.968Z,12.00
2022-09-12T03:54:56.795Z,12.10
2022-09-12T03:56:02.172Z,12.20
2022-09-12T03:57:05.404Z,12.00
2022-09-12T03:58:09.605Z,12.00
2022-09-12T03:59:12.184Z,11.90
2022-09-12T04:00:19.878Z,12.00
2022-09-12T04:01:23.969Z,12.00
2022-09-12T04:02:28.432Z,12.00
2022-09-12T04:03:32.191Z,12.00
2022-09-12T04:04:37.613Z,12.00
2022-09-12T04:05:42.899Z,12.00
2022-09-12T04:06:47.839Z,12.00
2022-09-12T04:07:50.946Z,12.00
2022-09-12T04:08:57.829Z,12.00
2022-09-12T04:10:01.052Z,11.90
2022-09-12T04:11:06.758Z,12.00
2022-09-12T04:12:09.526Z,12.00
2022-09-12T04:13:13.763Z,12.00
2022-09-12T04:14:16.654Z,12.10
2022-09-12T04:15:20.551Z,11.90
2022-09-12T04:16:23.504Z,11.90
2022-09-12T04:17:27.225Z,11.90
2022-09-12T04:18:30.183Z,11.90
2022-09-12T04:19:34.134Z,11.80
2022-09-12T04:20:37.210Z,11.80
2022-09-12T04:21:43.412Z,11.80
2022-09-12T04:22:46.348Z,11.80
2022-09-12T04:23:50.663Z,11.80
2022-09-12T04:24:53.645Z,11.80
2022-09-12T04:26:00.711Z,11.80
2022-09-12T04:27:07.961Z,10.30
2022-09-12T04:28:12.125Z,11.80
2022-09-12T04:29:16.727Z,11.80
2022-09-12T04:30:21.309Z,11.80
2022-09-12T04:31:26.203Z,11.80
2022-09-12T04:32:34.787Z,11.80
2022-09-12T04:33:39.839Z,11.80
2022-09-12T04:34:43.672Z,11.80
2022-09-12T04:35:50.653Z,11.70
2022-09-12T04:36:56.847Z,11.70
2022-09-12T04:38:01.027Z,11.70
2022-09-12T04:39:07.798Z,11.80
2022-09-12T04:40:11.126Z,11.80
2022-09-12T04:41:18.963Z,11.70
2022-09-12T04:42:21.695Z,11.80
2022-09-12T04:43:25.917Z,11.70
2022-09-12T04:44:29.085Z,11.80
2022-09-12T04:45:32.945Z,11.80
2022-09-12T04:46:39.079Z,11.70
2022-09-12T04:47:48.396Z,11.70
2022-09-12T04:48:56.453Z,11.70
2022-09-12T04:50:01.511Z,11.70
2022-09-12T04:51:09.372Z,11.70
2022-09-12T04:52:15.666Z,11.70
2022-09-12T04:53:18.644Z,11.70
2022-09-12T04:54:22.933Z,11.70
2022-09-12T04:55:26.646Z,11.60
2022-09-12T04:56:32.341Z,11.70
2022-09-12T04:57:36.135Z,11.70
2022-09-12T04:58:40.605Z,11.70
2022-09-12T04:59:43.559Z,11.60
2022-09-12T05:00:47.697Z,11.60
2022-09-12T05:01:53.042Z,11.60
2022-09-12T05:02:57.053Z,11.60
2022-09-12T05:04:01.323Z,11.60
2022-09-12T05:05:06.404Z,11.60
2022-09-12T05:06:12.174Z,11.70
2022-09-12T05:07:17.691Z,11.60
2022-09-12T05:08:23.601Z,11.60
2022-09-12T05:09:28.096Z,11.60
2022-09-12T05:10:31.469Z,13.10
2022-09-12T05:12:03.162Z,11.60
2022-09-12T05:13:03.121Z,11.70
2022-09-12T05:14:05.879Z,11.60
2022-09-12T05:15:11.137Z,11.70
2022-09-12T05:16:16.396Z,11.60
2022-09-12T05:17:23.103Z,11.70
2022-09-12T05:18:26.802Z,11.70
2022-09-12T05:19:32.369Z,11.70
2022-09-12T05:20:35.326Z,11.80
2022-09-12T05:21:40.520Z,11.80
2022-09-12T05:22:44.844Z,11.70
2022-09-12T05:23:52.003Z,11.80
2022-09-12T05:24:57.820Z,11.80
2022-09-12T05:26:03.155Z,11.70
2022-09-12T05:27:08.329Z,11.70
2022-09-12T05:28:11.517Z,11.70
2022-09-12T05:29:15.175Z,11.70
2022-09-12T05:30:18.192Z,11.70
2022-09-12T05:31:25.900Z,11.80
2022-09-12T05:32:34.008Z,11.80
2022-09-12T05:33:39.423Z,11.80
2022-09-12T05:34:45.630Z,11.80
2022-09-12T05:35:52.108Z,11.80
2022-09-12T05:36:56.242Z,11.80
2022-09-12T05:38:01.260Z,11.80
2022-09-12T05:39:06.057Z,11.90
2022-09-12T05:40:10.703Z,11.80
2022-09-12T05:41:19.121Z,11.90
2022-09-12T05:42:25.730Z,12.00
2022-09-12T05:43:29.614Z,11.90
2022-09-12T05:44:33.421Z,11.90
2022-09-12T05:45:36.342Z,12.00
2022-09-12T05:46:42.301Z,11.90
2022-09-12T05:47:47.758Z,12.00
2022-09-12T05:48:55.849Z,11.90
2022-09-12T05:49:59.855Z,12.00
2022-09-12T05:51:07.034Z,12.00
2022-09-12T05:52:10.116Z,12.00
2022-09-12T05:53:15.351Z,12.00
2022-09-12T05:54:21.310Z,12.00
2022-09-12T05:55:25.243Z,12.10
2022-09-12T05:56:29.968Z,12.00
2022-09-12T05:57:34.438Z,9.20
2022-09-12T05:58:39.238Z,12.00
2022-09-12T05:59:46.351Z,12.00
2022-09-12T06:00:49.907Z,12.10
2022-09-12T06:01:56.399Z,12.00
2022-09-12T06:02:59.440Z,12.00
2022-09-12T06:04:07.231Z,12.00
2022-09-12T06:05:11.067Z,12.10
2022-09-12T06:06:19.650Z,12.00
2022-09-12T06:07:23.029Z,12.00
2022-09-12T06:08:28.149Z,11.80
2022-09-12T06:09:33.589Z,12.10
2022-09-12T06:10:36.817Z,12.20
2022-09-12T06:11:42.308Z,12.20
2022-09-12T06:12:46.112Z,12.30
2022-09-12T06:13:53.187Z,12.30
2022-09-12T06:14:57.504Z,12.40
2022-09-12T06:16:06.658Z,12.30
2022-09-12T06:17:10.772Z,12.40
2022-09-12T06:18:13.489Z,12.50
2022-09-12T06:19:19.862Z,12.10
2022-09-12T06:20:23.847Z,12.70
2022-09-12T06:21:30.995Z,14.00
2022-09-12T06:22:37.374Z,12.70
2022-09-12T06:23:42.395Z,12.70
2022-09-12T06:25:52.653Z,12.80
2022-09-12T06:26:58.390Z,12.80
2022-09-12T06:28:05.386Z,12.80
2022-09-12T06:30:18.914Z,12.80
2022-09-12T06:31:26.808Z,12.70
2022-09-12T06:32:31.964Z,12.90
2022-09-12T06:33:39.149Z,12.90
2022-09-12T06:34:41.786Z,13.00
2022-09-12T06:35:45.961Z,12.90
2022-09-12T06:36:51.526Z,13.10
2022-09-12T06:37:55.708Z,13.10
2022-09-12T06:39:08.310Z,13.10
2022-09-12T06:40:12.913Z,13.10
2022-09-12T06:41:18.780Z,13.20
2022-09-12T06:42:23.069Z,13.10
2022-09-12T06:45:41.325Z,13.30
2022-09-12T06:46:46.400Z,13.20
2022-09-12T06:47:49.644Z,13.30
2022-09-12T06:48:54.099Z,13.30
2022-09-12T06:49:59.571Z,13.40
2022-09-12T06:51:08.090Z,13.40
2022-09-12T06:52:11.788Z,13.50
2022-09-12T06:53:15.272Z,13.40
2022-09-12T06:54:20.703Z,13.40
2022-09-12T06:55:27.781Z,13.50
2022-09-12T06:56:31.570Z,12.30
2022-09-12T06:57:36.710Z,13.50
2022-09-12T06:58:41.854Z,13.50
2022-09-12T06:59:45.890Z,13.30
2022-09-12T07:00:48.795Z,13.50
2022-09-12T07:01:52.569Z,13.50
2022-09-12T07:02:56.603Z,13.60
2022-09-12T07:04:03.277Z,13.60
2022-09-12T07:05:07.176Z,13.50
2022-09-12T07:06:12.800Z,13.60
2022-09-12T07:07:15.888Z,13.60
2022-09-12T07:08:19.812Z,13.60
2022-09-12T07:09:24.188Z,13.60
2022-09-12T07:10:29.934Z,13.70
2022-09-12T07:11:37.005Z,13.60
2022-09-12T07:12:40.677Z,13.70
2022-09-12T07:13:47.571Z,13.70
2022-09-12T07:14:51.867Z,13.50
2022-09-12T07:15:54.750Z,13.60
2022-09-12T07:16:58.401Z,13.40
2022-09-12T07:18:00.927Z,13.60
2022-09-12T07:19:06.172Z,13.60
2022-09-12T07:20:10.083Z,13.70
2022-09-12T07:21:16.337Z,13.70
2022-09-12T07:22:21.863Z,13.70
2022-09-12T07:23:26.239Z,13.80
2022-09-12T07:24:32.699Z,13.80
2022-09-12T07:25:36.640Z,13.90
2022-09-12T07:26:42.540Z,13.80
2022-09-12T07:27:50.618Z,13.90
2022-09-12T07:29:12.784Z,13.80
2022-09-12T07:30:22.744Z,13.90
2022-09-12T07:31:27.834Z,13.90
2022-09-12T07:32:32.350Z,17.70
2022-09-12T07:33:36.528Z,13.90
2022-09-12T07:35:43.328Z,14.00
2022-09-12T07:36:50.711Z,13.90
2022-09-12T07:37:53.394Z,13.80
2022-09-12T07:38:58.590Z,13.80
2022-09-12T07:40:03.391Z,13.80
2022-09-12T07:41:13.233Z,13.80
2022-09-12T07:42:17.063Z,13.80
2022-09-12T07:43:19.806Z,13.80
2022-09-12T07:44:24.348Z,13.80
2022-09-12T07:45:27.218Z,13.80
2022-09-12T07:46:34.907Z,13.80
2022-09-12T07:48:42.525Z,13.80
2022-09-12T07:49:45.646Z,13.70
2022-09-12T07:50:49.788Z,13.80
2022-09-12T07:51:54.192Z,13.70
2022-09-12T07:52:56.950Z,14.00
2022-09-12T07:54:01.296Z,13.60
2022-09-12T07:55:08.318Z,15.00
2022-09-12T07:56:13.474Z,13.60
2022-09-12T07:57:17.695Z,13.60
2022-09-12T07:58:21.612Z,13.60
2022-09-12T07:59:51.017Z,13.60
2022-09-12T08:00:49.973Z,13.50
2022-09-12T08:01:53.057Z,13.40
2022-09-12T08:02:56.725Z,13.50
2022-09-12T08:04:00.997Z,13.50
2022-09-12T08:05:04.651Z,13.40
2022-09-12T08:06:10.184Z,13.40
2022-09-12T08:07:14.300Z,13.40
2022-09-12T08:08:17.301Z,13.40
2022-09-12T08:09:21.066Z,13.40
2022-09-12T08:10:26.245Z,13.30
2022-09-12T08:11:32.457Z,13.30
2022-09-12T08:12:35.572Z,13.30
2022-09-12T08:13:42.573Z,13.30
2022-09-12T08:14:45.213Z,13.30
2022-09-12T08:15:51.965Z,13.30
2022-09-12T08:16:55.839Z,13.30
2022-09-12T08:17:59.666Z,13.40
2022-09-12T08:19:06.862Z,13.40
2022-09-12T08:20:10.483Z,13.50
2022-09-12T08:21:18.382Z,13.50
2022-09-12T08:22:24.627Z,13.50
2022-09-12T08:23:28.900Z,13.60
2022-09-12T08:24:34.017Z,13.50
2022-09-12T08:25:41.032Z,13.60
2022-09-12T08:26:45.204Z,13.70
2022-09-12T08:27:48.599Z,13.70
2022-09-12T08:28:53.524Z,13.70
2022-09-12T08:30:00.742Z,13.80
2022-09-12T08:31:06.541Z,13.80
2022-09-12T08:32:11.231Z,13.80
2022-09-12T08:33:14.258Z,13.80
2022-09-12T08:34:21.449Z,13.90
2022-09-12T08:35:25.446Z,13.90
2022-09-12T08:36:31.941Z,13.90
2022-09-12T08:37:34.820Z,13.90
2022-09-12T08:38:40.881Z,13.90
2022-09-12T08:39:45.848Z,14.00
2022-09-12T08:41:00.437Z,14.00
2022-09-12T08:42:06.290Z,14.00
2022-09-12T08:43:29.742Z,14.00
2022-09-12T08:44:58.053Z,13.90
2022-09-12T08:46:10.123Z,14.00
2022-09-12T08:47:29.265Z,14.00
2022-09-12T08:48:33.366Z,14.00
2022-09-12T08:49:50.884Z,14.00
2022-09-12T08:50:56.623Z,14.00
2022-09-12T08:52:06.156Z,14.00
2022-09-12T08:53:18.201Z,14.00
2022-09-12T08:54:27.840Z,14.00
2022-09-12T08:55:36.038Z,14.10
2022-09-12T08:56:40.989Z,14.20
2022-09-12T08:57:45.308Z,14.10
2022-09-12T08:58:50.009Z,11.60
2022-09-12T08:59:53.768Z,14.10
2022-09-12T09:01:08.723Z,14.10
2022-09-12T09:02:50.146Z,14.20
2022-09-12T09:04:28.606Z,14.20
2022-09-12T09:05:48.151Z,14.20
2022-09-12T09:07:20.704Z,14.20
2022-09-12T09:08:43.539Z,14.20
2022-09-12T09:10:08.306Z,14.20
2022-09-12T09:11:38.219Z,14.20
2022-09-12T09:12:56.028Z,14.20
2022-09-12T09:14:33.337Z,14.20
2022-09-12T09:15:49.828Z,14.90
2022-09-12T09:16:56.922Z,14.20
2022-09-12T09:18:07.964Z,14.20
2022-09-12T09:19:17.803Z,14.30
2022-09-12T09:20:32.569Z,14.30
2022-09-12T09:21:43.659Z,14.30
2022-09-12T09:22:54.110Z,12.00
2022-09-12T09:24:05.672Z,14.40
2022-09-12T09:25:22.119Z,14.50
2022-09-12T09:26:37.406Z,14.40
2022-09-12T09:27:52.475Z,14.40
2022-09-12T09:29:06.435Z,14.50
2022-09-12T09:30:15.858Z,14.50
2022-09-12T09:31:23.954Z,12.30
2022-09-12T09:32:30.524Z,14.50
2022-09-12T09:33:37.669Z,14.50
2022-09-12T09:34:42.087Z,14.40
2022-09-12T09:35:49.081Z,14.40
2022-09-12T09:37:01.059Z,14.40
2022-09-12T09:38:23.259Z,14.40
2022-09-12T09:39:42.566Z,14.40
2022-09-12T09:40:58.216Z,14.40
2022-09-12T09:42:17.367Z,14.40
2022-09-12T09:43:29.466Z,14.30
2022-09-12T09:44:34.255Z,14.40
2022-09-12T09:45:40.929Z,14.50
2022-09-12T09:46:48.014Z,14.50
2022-09-12T09:47:57.851Z,14.60
2022-09-12T09:49:04.856Z,14.60
2022-09-12T09:50:14.582Z,14.60
2022-09-12T09:51:25.733Z,14.70
2022-09-12T09:52:33.277Z,14.70
2022-09-12T09:53:43.537Z,14.70
2022-09-12T09:54:53.165Z,14.80
2022-09-12T09:56:01.874Z,15.00
2022-09-12T09:57:05.293Z,15.20
2022-09-12T09:58:09.408Z,15.30
2022-09-12T09:59:18.783Z,15.90
2022-09-12T10:00:28.968Z,15.60
2022-09-12T10:01:33.464Z,15.70
2022-09-12T10:02:38.700Z,15.80
2022-09-12T10:03:55.522Z,16.00
2022-09-12T10:05:00.112Z,16.10
2022-09-12T10:06:09.437Z,16.20
2022-09-12T10:07:21.326Z,16.30
2022-09-12T10:08:29.198Z,16.40
2022-09-12T10:09:38.664Z,16.50
2022-09-12T10:10:54.317Z,16.60
2022-09-12T10:11:59.267Z,16.80
2022-09-12T10:13:29.978Z,16.80
2022-09-12T10:14:40.512Z,16.90
2022-09-12T10:15:58.070Z,16.90
2022-09-12T10:17:05.373Z,17.00
2022-09-12T10:18:10.226Z,17.00
2022-09-12T10:19:26.205Z,17.10
2022-09-12T10:20:32.293Z,17.10
2022-09-12T10:21:45.469Z,17.10
2022-09-12T10:22:51.322Z,17.10
2022-09-12T10:24:19.417Z,17.10
2022-09-12T10:25:27.790Z,17.10
2022-09-12T10:26:39.399Z,17.00
2022-09-12T10:27:43.389Z,17.00
2022-09-12T10:28:52.265Z,16.10
2022-09-12T10:30:04.362Z,16.80
2022-09-12T10:31:14.533Z,17.00
2022-09-12T10:32:31.094Z,16.90
2022-09-12T10:33:42.887Z,16.90
2022-09-12T10:34:51.602Z,16.90
2022-09-12T10:35:57.688Z,16.80
2022-09-12T10:37:05.450Z,16.80
2022-09-12T10:38:21.103Z,16.70
2022-09-12T10:39:24.395Z,16.70
2022-09-12T10:40:33.736Z,16.70
2022-09-12T10:41:41.397Z,16.70
2022-09-12T10:42:53.234Z,16.80
2022-09-12T10:44:08.893Z,16.80
2022-09-12T10:45:25.155Z,16.80
2022-09-12T10:46:32.059Z,16.80
2022-09-12T10:47:35.746Z,16.80
2022-09-12T10:48:38.965Z,16.80
2022-09-12T10:49:43.175Z,16.80
2022-09-12T10:50:51.353Z,16.80
2022-09-12T10:51:57.023Z,16.90
2022-09-12T10:53:19.732Z,16.90
2022-09-12T10:54:26.485Z,16.90
2022-09-12T10:55:37.130Z,16.90
2022-09-12T10:56:53.113Z,16.90
2022-09-12T10:58:24.833Z,17.00
2022-09-12T10:59:47.158Z,17.00
2022-09-12T11:01:07.053Z,17.00
2022-09-12T11:02:23.808Z,17.10
2022-09-12T11:03:55.870Z,17.00
2022-09-12T11:05:15.441Z,16.90
2022-09-12T11:06:36.997Z,16.90
2022-09-12T11:07:50.653Z,16.80
2022-09-12T11:09:14.448Z,16.70
2022-09-12T11:10:36.141Z,16.60
2022-09-12T11:11:57.590Z,16.40
2022-09-12T11:13:23.194Z,16.40
2022-09-12T11:14:42.367Z,16.30
2022-09-12T11:16:12.163Z,16.20
2022-09-12T11:17:31.305Z,16.10
2022-09-12T11:19:04.076Z,16.00
2022-09-12T11:20:36.885Z,16.00
2022-09-12T11:21:55.692Z,15.90
2022-09-12T11:23:37.354Z,12.20
2022-09-12T11:25:16.947Z,15.70
2022-09-12T11:26:43.341Z,15.70
2022-09-12T11:28:15.178Z,15.70
2022-09-12T11:29:39.793Z,15.70
2022-09-12T11:31:03.077Z,15.70
2022-09-12T11:32:29.394Z,15.70
2022-09-12T11:33:44.634Z,15.70
2022-09-12T11:35:04.527Z,15.80
2022-09-12T11:36:24.912Z,14.10
2022-09-12T11:37:56.252Z,15.80
2022-09-12T11:39:14.235Z,15.70
2022-09-12T11:40:33.949Z,15.80
2022-09-12T11:41:45.491Z,15.70
2022-09-12T11:42:53.832Z,15.60
2022-09-12T11:44:04.436Z,15.60
2022-09-12T11:45:17.145Z,15.60
2022-09-12T11:46:35.180Z,15.60
2022-09-12T11:47:45.368Z,15.60
2022-09-12T11:48:59.296Z,15.60
2022-09-12T11:50:16.610Z,15.80
2022-09-12T11:51:26.543Z,15.60
2022-09-12T11:52:38.796Z,15.60
2022-09-12T11:53:45.869Z,15.60
2022-09-12T11:55:01.022Z,15.60
2022-09-12T11:56:13.252Z,15.70
2022-09-12T11:57:24.847Z,15.70
2022-09-12T11:58:29.693Z,15.70
2022-09-12T11:59:43.572Z,15.80
2022-09-12T12:00:52.930Z,15.80
2022-09-12T12:02:01.643Z,15.70
2022-09-12T12:03:15.733Z,15.90
2022-09-12T12:04:29.541Z,16.10
2022-09-12T12:05:42.155Z,15.90
2022-09-12T12:06:55.181Z,15.90
2022-09-12T12:08:01.739Z,15.90
2022-09-12T12:09:09.297Z,15.90
2022-09-12T12:10:30.321Z,15.90
2022-09-12T12:11:39.376Z,14.90
2022-09-12T12:12:45.236Z,16.00
2022-09-12T12:13:56.995Z,16.10
2022-09-12T12:15:04.047Z,16.00
2022-09-12T12:16:13.792Z,16.00
2022-09-12T12:17:21.864Z,16.00
2022-09-12T12:18:30.190Z,16.10
2022-09-12T12:19:37.723Z,16.10
2022-09-12T12:20:41.168Z,16.20
2022-09-12T12:21:53.475Z,16.30
2022-09-12T12:22:57.862Z,16.30
2022-09-12T12:24:19.597Z,16.40
2022-09-12T12:25:41.874Z,16.50
2022-09-12T12:26:57.507Z,16.60
2022-09-12T12:28:09.393Z,16.60
2022-09-12T12:29:13.598Z,16.60
2022-09-12T12:31:00.209Z,16.70
2022-09-12T12:32:23.815Z,16.80
2022-09-12T12:34:23.269Z,17.00
2022-09-12T12:35:41.786Z,17.00
2022-09-12T12:36:48.073Z,17.10
2022-09-12T12:37:58.489Z,17.10
2022-09-12T12:39:46.318Z,17.20
2022-09-12T12:40:50.818Z,17.30
2022-09-12T12:41:53.856Z,17.30
2022-09-12T12:43:06.293Z,17.30
2022-09-12T12:44:49.319Z,17.30
2022-09-12T12:46:13.112Z,17.30
2022-09-12T12:47:21.742Z,17.20
2022-09-12T12:48:26.299Z,17.20
2022-09-12T12:49:32.195Z,14.20
2022-09-12T12:50:35.567Z,17.20
2022-09-12T12:52:01.340Z,17.20
2022-09-12T12:53:07.608Z,19.70
2022-09-12T12:54:55.759Z,17.30
2022-09-12T12:55:59.542Z,14.80
2022-09-12T12:57:27.245Z,17.10
2022-09-12T12:58:36.931Z,16.70
2022-09-12T12:59:53.833Z,17.10
2022-09-12T13:01:15.685Z,17.10
2022-09-12T13:02:24.572Z,17.00
2022-09-12T13:03:33.654Z,17.00
2022-09-12T13:04:49.016Z,17.00
2022-09-12T13:06:00.259Z,16.90
2022-09-12T13:07:08.973Z,16.90
2022-09-12T13:08:32.196Z,16.70
2022-09-12T13:09:45.936Z,16.70
2022-09-12T13:10:54.760Z,16.70
2022-09-12T13:12:07.060Z,16.60
2022-09-12T13:13:10.429Z,16.60
2022-09-12T13:14:37.276Z,16.60
2022-09-12T13:15:53.924Z,16.60
2022-09-12T13:17:01.241Z,16.50
2022-09-12T13:18:08.615Z,16.50
2022-09-12T13:19:19.999Z,16.50
2022-09-12T13:20:35.330Z,16.50
2022-09-12T13:21:39.632Z,16.50
2022-09-12T13:22:47.666Z,16.50
2022-09-12T13:24:02.423Z,16.50
2022-09-12T13:25:22.906Z,16.50
2022-09-12T13:26:27.995Z,16.50
2022-09-12T13:27:31.271Z,16.50
2022-09-12T13:28:35.375Z,16.60
2022-09-12T13:29:38.961Z,16.60
2022-09-12T13:30:48.164Z,16.60
2022-09-12T13:31:57.253Z,16.60
2022-09-12T13:33:19.730Z,16.70
2022-09-12T13:34:32.904Z,16.70
2022-09-12T13:36:05.035Z,16.60
2022-09-12T13:37:39.348Z,16.60
2022-09-12T13:38:59.949Z,16.50
2022-09-12T13:40:35.049Z,18.20
2022-09-12T13:42:03.565Z,19.90
2022-09-12T13:43:15.370Z,16.60
2022-09-12T13:44:23.502Z,16.60
2022-09-12T13:45:29.451Z,16.60
2022-09-12T13:46:35.777Z,16.60
2022-09-12T13:47:44.475Z,16.50
2022-09-12T13:48:48.294Z,16.50
2022-09-12T13:49:52.987Z,16.40
2022-09-12T13:51:02.148Z,16.40
2022-09-12T13:52:09.683Z,19.30
2022-09-12T13:53:18.179Z,16.60
2022-09-12T13:54:24.546Z,14.50
2022-09-12T13:55:33.923Z,16.60
2022-09-12T13:56:49.560Z,16.70
2022-09-12T13:57:58.637Z,16.70
2022-09-12T13:59:04.176Z,16.60
2022-09-12T14:00:16.483Z,16.70
2022-09-12T14:01:19.894Z,16.70
2022-09-12T14:02:27.927Z,16.80
2022-09-12T14:03:58.957Z,16.80
2022-09-12T14:05:11.088Z,16.90
2022-09-12T14:06:19.371Z,16.90
2022-09-12T14:07:28.629Z,17.00
2022-09-12T14:08:34.923Z,17.10
2022-09-12T14:09:44.902Z,17.20
2022-09-12T14:10:53.993Z,17.20
2022-09-12T14:12:00.140Z,17.20
2022-09-12T14:13:12.648Z,17.30
2022-09-12T14:14:33.146Z,17.30
2022-09-12T14:15:40.988Z,17.40
2022-09-12T14:16:48.147Z,17.30
2022-09-12T14:17:54.912Z,17.40
2022-09-12T14:19:00.913Z,17.50
2022-09-12T14:20:12.520Z,17.50
2022-09-12T14:21:37.602Z,17.50
2022-09-12T14:22:42.473Z,17.50
2022-09-12T14:23:58.602Z,20.40
2022-09-12T14:25:07.461Z,17.60
2022-09-12T14:26:17.957Z,17.50
2022-09-12T14:27:30.883Z,17.40
2022-09-12T14:28:36.544Z,17.30
2022-09-12T14:29:44.202Z,17.30
2022-09-12T14:31:01.127Z,17.30
2022-09-12T14:32:07.669Z,17.30
2022-09-12T14:33:21.187Z,17.40
2022-09-12T14:34:25.409Z,17.40
2022-09-12T14:35:28.735Z,17.40
2022-09-12T14:36:41.960Z,17.40
2022-09-12T14:37:49.595Z,17.50
2022-09-12T14:38:58.902Z,17.50
2022-09-12T14:40:03.431Z,17.50
2022-09-12T14:41:11.817Z,17.50
2022-09-12T14:42:21.041Z,17.60
2022-09-12T14:43:29.578Z,17.50
2022-09-12T14:44:35.489Z,14.50
2022-09-12T14:45:44.722Z,17.50
2022-09-12T14:46:50.565Z,17.40
2022-09-12T14:47:55.072Z,17.40
2022-09-12T14:49:06.145Z,17.40
2022-09-12T14:50:19.468Z,17.40
2022-09-12T14:51:32.064Z,17.40
2022-09-12T14:52:40.357Z,17.40
2022-09-12T14:53:49.581Z,17.50
2022-09-12T14:55:01.473Z,17.50
2022-09-12T14:56:14.683Z,17.40
2022-09-12T14:57:39.484Z,17.30
2022-09-12T14:58:44.411Z,17.20
2022-09-12T14:59:48.205Z,17.20
2022-09-12T15:01:00.983Z,17.10
2022-09-12T15:02:26.103Z,17.20
2022-09-12T15:03:34.063Z,17.20
2022-09-12T15:04:42.399Z,17.20
2022-09-12T15:05:51.941Z,17.10
2022-09-12T15:06:55.191Z,17.20
2022-09-12T15:08:05.112Z,17.20
2022-09-12T15:09:14.170Z,17.20